Date,TemperatureHighF,TemperatureAvgF,TemperatureLowF,DewpointHighF,DewpointAvgF,DewpointLowF,HumidityHigh,HumidityAvg,HumidityLow,PressureMaxIn,PressureMinIn,WindSpeedMaxMPH,WindSpeedAvgMPH,GustSpeedMaxMPH,PrecipitationSumIn
2014-1-1,22.1,17.3,14.8,17.3,14.1,11.5,91,87,79,30.58,30.34,11,1,14,0.01
2014-1-2,16.6,12.4,3.4,13.8,9.7,-0.5,92,88,83,30.34,30.00,14,5,19,0.00
2014-1-3,9.9,1.4,-8.4,0.2,-3.8,-11.7,87,79,55,30.76,30.22,16,3,18,0.00
2014-1-4,33.5,17.1,-3.8,19.8,7.9,-6.9,94,69,40,30.70,30.31,26,2,26,0.05
2014-1-5,42.9,30.3,17.5,40.1,25.6,14.7,95,83,67,30.32,29.37,21,1,21,0.32
2014-1-6,45.1,15.6,-10.8,43.1,12.2,-15.6,100,86,73,30.24,29.24,32,14,41,0.36
2014-1-7,-0.7,-6.9,-13.2,-6.9,-12.9,-18.7,81,74,65,30.81,30.23,29,12,30,0.00
2014-1-8,15.6,7.0,-3.9,11.2,1.8,-8.1,92,79,63,30.91,30.77,15,4,20,0.00
2014-1-9,28.3,19.5,14.3,23.8,14.5,10.0,92,81,58,30.91,30.56,10,1,12,0.00
2014-1-10,39.1,31.1,25.8,38.5,30.0,23.5,98,96,88,30.56,29.95,8,0,10,0.12
2014-1-11,49.2,39.8,31.8,48.8,38.2,30.4,99,94,82,29.95,29.20,37,6,37,0.94
2014-1-12,33.2,30.7,26.8,31.0,27.5,24.7,96,88,78,30.07,29.53,33,7,33,0.00
2014-1-13,47.7,36.1,23.5,41.6,32.3,22.2,97,87,58,30.04,29.65,13,1,15,0.33
2014-1-14,42.8,34.4,24.1,42.1,32.6,22.9,98,93,81,29.81,29.62,15,2,15,0.12
2014-1-15,33.3,28.0,23.8,31.9,22.9,15.8,97,81,66,30.09,29.77,24,6,27,0.01
2014-1-16,28.2,24.6,20.8,20.7,16.8,13.1,87,72,62,30.07,29.89,13,2,22,0.00
2014-1-17,36.9,29.8,26.1,28.5,25.0,20.6,96,83,63,29.93,29.84,15,4,19,0.02
2014-1-18,26.4,14.3,8.2,25.2,9.8,3.2,95,82,72,30.10,29.88,21,7,23,0.00
2014-1-19,28.7,20.0,4.5,21.0,14.9,2.0,92,81,69,30.04,29.71,30,8,32,0.00
2014-1-20,31.8,24.8,13.0,28.2,20.4,8.2,93,83,74,30.08,29.60,25,7,25,0.00
2014-1-21,12.9,7.0,-0.1,8.2,0.8,-6.6,81,75,65,30.36,30.06,14,4,15,0.00
2014-1-22,9.1,2.5,-4.6,1.0,-4.0,-8.8,85,74,57,30.39,30.30,12,2,13,0.00
2014-1-23,11.8,5.5,-3.1,8.9,1.6,-6.0,100,83,73,30.73,30.30,21,4,22,0.00
2014-1-24,12.8,5.6,-4.7,2.0,-1.5,-8.3,87,73,56,30.75,29.99,28,7,34,0.00
2014-1-25,21.9,15.2,7.0,19.8,11.4,0.4,92,85,56,30.00,29.39,24,8,24,0.00
2014-1-26,26.6,8.7,-8.6,21.6,5.1,-12.1,90,85,80,29.99,29.68,18,4,20,0.00
2014-1-27,33.2,12.9,0.4,30.8,8.0,-4.0,94,80,61,30.44,29.51,35,10,38,0.00
2014-1-28,5.0,-5.8,-19.7,-2.9,-11.0,-24.0,87,78,59,30.77,30.43,20,4,20,0.00
2014-1-29,12.8,-3.0,-24.2,-0.8,-11.1,-29.0,85,69,52,30.70,30.58,27,6,28,0.00
2014-1-30,27.6,10.7,-13.9,9.7,-2.5,-18.1,88,60,33,30.71,30.17,20,2,21,0.00
2014-1-31,34.4,29.8,23.1,24.9,18.0,8.7,93,62,44,30.26,30.13,18,6,19,0.00
2014-2-1,36.2,30.0,23.5,34.1,28.0,21.5,97,92,72,30.28,29.91,13,0,13,0.17
2014-2-2,35.6,28.9,20.8,35.0,27.3,18.3,98,94,87,30.30,29.92,11,2,12,0.14
2014-2-3,23.5,19.5,6.9,20.2,15.7,4.2,91,85,76,30.58,30.27,9,1,9,0.00
2014-2-4,26.7,14.4,-1.2,20.9,10.2,-4.3,91,84,69,30.74,30.35,9,1,11,0.00
2014-2-5,23.7,21.2,15.7,22.2,18.9,12.4,95,91,84,30.39,29.73,14,4,21,0.00
2014-2-6,19.3,12.3,-4.1,13.7,7.7,-7.2,89,82,69,30.61,30.39,21,6,28,0.00
2014-2-7,16.8,7.9,-4.0,11.4,-0.4,-8.8,86,70,51,30.62,30.47,25,7,36,0.00
2014-2-8,16.5,2.2,-12.2,8.6,-3.0,-16.1,89,79,57,30.70,30.53,14,1,14,0.00
2014-2-9,21.3,11.5,0.4,18.9,8.8,-2.5,92,88,86,30.54,30.16,20,3,23,0.00
2014-2-10,17.5,8.5,-3.9,12.8,4.6,-7.5,90,84,68,30.64,30.36,18,3,19,0.00
2014-2-11,13.7,3.5,-9.9,6.9,-1.0,-13.6,89,81,63,30.86,30.63,10,1,12,0.00
2014-2-12,29.5,4.3,-20.2,10.1,-4.2,-24.7,89,70,39,30.88,30.48,11,1,15,0.17
2014-2-13,29.3,17.4,5.0,22.9,12.1,1.0,90,80,67,30.48,29.66,9,1,10,0.01
2014-2-14,26.5,21.3,8.2,23.7,18.4,5.7,92,89,84,29.86,29.56,22,5,27,0.00
2014-2-15,24.0,18.6,8.9,20.4,14.1,4.9,89,82,69,30.22,29.81,18,5,23,0.00
2014-2-16,22.0,9.2,-5.6,17.4,5.4,-8.9,90,84,77,30.59,30.19,14,2,15,0.00
2014-2-17,29.7,12.2,-15.6,19.5,-0.1,-20.1,92,63,32,30.80,30.01,29,4,35,0.01
2014-2-18,29.4,23.3,12.5,27.1,20.1,10.3,96,88,73,30.15,29.87,32,7,36,0.00
2014-2-19,46.9,31.1,15.2,38.9,27.5,13.5,100,87,71,30.21,29.69,27,5,30,0.23
2014-2-20,40.4,29.7,19.2,36.7,28.1,17.8,98,94,65,30.24,29.74,15,1,16,0.91
2014-2-21,45.0,37.5,34.4,44.7,31.4,17.2,99,80,47,29.86,29.52,31,9,39,0.89
2014-2-22,42.5,36.7,28.1,32.5,24.3,17.8,91,62,46,30.01,29.82,34,11,34,0.02
2014-2-23,37.5,31.9,23.2,32.0,24.7,14.5,95,76,46,30.04,29.94,21,7,26,0.09
2014-2-24,23.3,19.3,18.0,16.3,14.0,10.5,91,80,64,30.28,30.03,31,9,31,0.00
2014-2-25,21.0,16.4,11.2,16.1,10.6,7.1,92,78,57,30.29,30.07,19,7,20,0.00
2014-2-26,17.4,8.8,0.9,14.5,1.1,-4.4,92,72,48,30.26,29.94,23,7,26,0.00
2014-2-27,14.1,6.0,-8.9,11.0,-0.1,-13.5,90,76,50,30.48,29.75,31,8,40,0.00
2014-2-28,21.2,2.2,-15.6,2.1,-8.0,-19.7,83,65,32,30.78,30.47,12,1,16,0.00
2014-3-1,38.4,22.5,4.7,26.6,12.9,-0.4,92,68,41,30.57,30.25,13,2,19,0.00
2014-3-2,25.3,13.5,3.7,21.7,6.5,-5.6,89,74,52,30.46,30.26,14,3,16,0.00
2014-3-3,14.8,3.3,-10.2,0.2,-5.1,-14.4,84,68,50,30.76,30.46,13,2,14,0.01
2014-3-4,26.2,8.9,-13.8,14.3,-3.1,-18.0,84,62,26,30.78,30.48,15,1,16,0.00
2014-3-5,21.5,16.0,2.0,12.8,6.1,-2.8,87,65,42,30.76,30.44,14,2,20,0.00
2014-3-6,32.4,15.4,-4.0,11.9,2.7,-7.4,88,61,34,30.85,30.48,12,3,22,0.01
2014-3-7,49.2,29.4,12.7,33.2,20.3,7.8,93,70,46,30.48,30.00,14,1,14,0.01
2014-3-8,34.4,27.3,20.3,31.9,25.1,18.9,95,91,81,30.16,29.95,13,3,15,0.01
2014-3-9,32.6,25.4,15.0,22.4,18.0,11.8,89,74,57,30.32,29.97,19,7,24,0.00
2014-3-10,51.1,40.0,32.3,37.9,30.9,21.9,90,70,58,29.97,29.50,25,7,26,0.00
2014-3-11,54.2,38.5,27.9,41.8,33.8,26.7,96,84,57,29.67,29.58,13,2,15,0.00
2014-3-12,37.1,27.8,10.1,36.1,25.7,5.4,97,91,81,29.82,29.10,21,4,29,0.57
2014-3-13,18.6,10.4,-0.3,8.6,1.6,-5.1,89,68,53,30.37,29.82,23,7,27,0.00
2014-3-14,54.7,36.8,18.6,39.4,23.9,7.0,83,60,43,30.35,29.63,29,6,32,0.04
2014-3-15,43.9,34.1,24.7,40.0,29.5,18.5,95,83,73,30.20,29.64,26,8,29,0.10
2014-3-16,24.7,18.9,14.2,19.1,9.9,3.7,80,68,49,30.48,30.20,12,4,15,0.00
2014-3-17,38.3,20.8,7.9,15.4,7.3,2.5,78,59,26,30.32,30.07,12,2,13,0.00
2014-3-18,49.2,32.6,19.7,31.6,23.4,13.7,88,70,48,30.22,30.10,20,1,20,0.00
2014-3-19,47.4,38.6,27.6,40.3,32.6,22.6,97,80,63,30.11,29.67,21,2,21,1.44
2014-3-20,42.2,32.5,29.8,41.1,29.3,23.8,100,88,75,30.04,29.68,27,10,28,0.10
2014-3-21,45.5,33.7,27.6,30.7,24.4,20.4,91,70,42,30.17,29.89,19,3,20,0.00
2014-3-22,45.0,34.4,29.7,37.6,29.6,25.5,92,83,63,30.16,29.61,35,6,35,0.05
2014-3-23,31.3,21.0,15.2,27.3,14.5,8.0,87,76,64,30.48,30.11,20,6,22,0.00
2014-3-24,26.1,17.9,11.3,18.5,11.0,5.5,85,74,55,30.53,30.29,19,4,22,0.00
2014-3-25,34.7,23.1,12.0,21.7,14.6,9.6,92,73,37,30.29,29.98,20,3,20,0.00
2014-3-26,21.1,15.5,9.3,16.2,7.9,2.7,89,72,57,30.53,30.12,25,6,29,0.00
2014-3-27,43.3,27.2,13.5,23.0,12.3,7.7,77,57,31,30.53,29.84,14,2,19,0.00
2014-3-28,53.8,43.6,32.7,49.1,31.9,16.1,93,67,37,30.14,29.68,27,6,28,0.14
2014-3-29,44.3,35.8,30.3,39.0,33.3,28.9,95,91,79,30.18,29.84,20,3,20,0.79
2014-3-30,41.2,32.4,28.4,32.3,27.7,23.9,96,83,65,30.14,29.85,21,4,21,0.23
2014-3-31,57.0,36.8,23.1,39.6,28.1,21.4,94,74,34,30.30,30.13,11,2,12,0.00
2014-4-1,71.2,45.1,26.5,43.3,33.0,24.6,95,67,29,30.19,29.71,33,3,33,0.00
2014-4-2,56.0,42.8,31.4,34.9,31.2,27.9,88,66,37,30.17,29.93,20,4,21,0.00
2014-4-3,53.0,40.5,28.4,42.0,32.0,25.4,95,75,36,30.17,29.85,13,2,13,0.21
2014-4-4,50.4,45.7,38.0,48.7,43.9,35.5,98,94,78,29.82,29.37,28,5,32,0.68
2014-4-5,37.9,33.2,24.2,35.9,27.8,22.2,93,81,64,30.25,29.64,29,10,32,0.02
2014-4-6,56.6,36.0,19.6,35.5,26.3,18.1,95,73,32,30.35,30.10,10,1,13,0.00
2014-4-7,47.8,37.5,28.2,42.6,33.8,25.9,95,87,51,30.11,29.33,16,3,21,0.91
2014-4-8,51.7,42.9,31.6,47.4,38.4,29.8,97,85,51,29.68,29.18,29,7,32,0.22
2014-4-9,50.8,37.8,26.5,37.0,29.8,24.7,97,76,45,30.05,29.68,25,3,27,0.00
2014-4-10,67.8,47.8,24.3,49.3,33.0,22.8,95,63,30,30.07,29.72,34,4,40,0.00
2014-4-11,54.9,47.3,35.4,49.8,44.6,34.4,98,91,68,30.02,29.80,14,1,15,0.46
2014-4-12,67.5,50.0,35.4,49.8,40.8,34.3,99,76,35,30.18,29.85,24,2,26,0.00
2014-4-13,80.2,65.6,49.8,57.0,50.4,39.1,89,60,41,29.85,29.56,33,6,33,0.00
2014-4-14,74.2,61.9,48.1,58.7,54.1,45.9,96,77,52,29.56,29.35,32,5,40,0.57
2014-4-15,55.4,34.5,23.1,54.8,32.0,17.0,99,90,77,30.24,29.28,23,7,26,0.33
2014-4-16,39.6,27.4,15.2,25.0,18.6,12.9,92,71,44,30.68,30.24,12,2,14,0.02
2014-4-17,59.3,41.1,24.0,35.0,26.6,20.0,89,60,34,30.66,30.40,25,2,25,0.00
2014-4-18,65.6,47.5,30.7,42.7,35.4,27.8,90,66,37,30.46,30.13,20,3,23,0.00
2014-4-19,58.3,44.5,29.2,41.7,33.1,28.1,97,68,35,30.37,30.24,18,3,21,0.00
2014-4-20,72.4,49.2,27.2,37.5,30.9,24.2,95,58,18,30.40,30.10,18,1,20,0.00
2014-4-21,78.1,56.6,35.0,45.9,38.5,32.3,91,57,24,30.10,29.60,20,3,21,0.00
2014-4-22,58.1,49.7,37.4,54.7,45.7,34.7,96,86,71,29.66,29.37,26,6,29,0.24
2014-4-23,45.7,37.0,30.1,35.6,32.2,26.2,93,83,60,30.10,29.66,23,9,27,0.04
2014-4-24,56.4,39.0,22.9,30.7,24.8,20.2,94,63,28,30.24,29.99,16,2,16,0.00
2014-4-25,67.2,49.0,31.9,51.0,37.0,24.7,95,67,31,29.99,29.48,27,3,28,0.36
2014-4-26,56.6,44.8,39.7,46.9,38.8,34.0,95,80,61,29.99,29.60,28,8,31,0.00
2014-4-27,55.9,43.9,35.8,38.0,33.6,29.5,86,68,46,30.13,29.98,15,2,16,0.00
2014-4-28,60.2,47.5,29.4,44.3,35.1,27.4,94,65,41,30.11,29.80,21,4,23,0.00
2014-4-29,51.7,48.9,46.1,47.0,44.2,40.8,91,84,72,29.98,29.71,28,9,31,0.39
2014-4-30,50.1,47.5,44.6,49.5,45.2,41.1,98,92,82,29.98,29.67,23,5,27,1.91
2014-5-1,55.9,51.4,45.6,52.1,46.1,38.5,99,83,55,29.70,29.64,23,5,24,0.12
2014-5-2,52.4,48.1,44.6,43.4,41.1,38.2,94,77,66,29.76,29.61,18,5,20,0.01
2014-5-3,55.8,47.2,39.7,46.8,42.7,38.4,97,85,64,29.75,29.54,21,4,28,0.15
2014-5-4,52.7,42.7,34.0,42.4,38.5,32.2,96,86,52,30.01,29.70,22,4,24,0.06
2014-5-5,56.7,42.9,28.6,41.2,34.8,27.6,98,76,45,30.08,29.90,12,1,14,0.00
2014-5-6,62.1,47.2,31.1,42.5,36.3,29.7,95,70,40,30.06,29.91,13,2,20,0.00
2014-5-7,62.5,49.7,33.3,46.3,39.0,31.3,95,69,48,30.11,29.96,15,2,16,0.00
2014-5-8,83.3,64.4,49.0,64.5,55.9,43.8,100,77,47,30.02,29.75,20,3,20,0.52
2014-5-9,83.0,65.7,51.4,64.2,57.8,50.9,99,80,39,29.82,29.56,34,4,40,0.21
2014-5-10,68.3,60.3,44.7,61.2,54.1,39.7,100,81,51,29.81,29.60,22,5,25,0.16
2014-5-11,75.3,56.5,36.6,51.2,44.1,35.6,97,68,32,30.00,29.81,18,3,20,0.00
2014-5-12,78.8,62.9,48.3,65.1,56.4,45.2,96,80,57,29.97,29.80,14,3,14,0.10
2014-5-13,86.7,71.7,60.6,70.8,64.4,60.0,99,80,48,29.87,29.68,20,3,21,0.83
2014-5-14,80.8,69.4,61.8,70.0,63.7,60.2,97,84,55,29.85,29.69,27,2,27,0.62
2014-5-15,73.3,64.5,51.6,64.2,60.1,50.2,96,86,70,29.75,29.55,20,3,25,1.06
2014-5-16,52.4,47.0,35.3,50.9,42.5,32.9,97,85,65,29.94,29.67,14,4,18,0.31
2014-5-17,51.8,42.0,32.9,45.0,38.1,31.6,97,87,62,30.19,29.92,15,2,18,0.07
2014-5-18,60.1,45.8,33.1,47.5,37.1,32.6,99,76,39,30.30,30.18,18,2,18,0.00
2014-5-19,66.4,50.4,32.0,46.4,39.1,31.0,97,70,37,30.30,30.12,20,3,22,0.00
2014-5-20,64.7,51.7,38.8,51.4,44.2,37.2,96,78,43,30.15,29.85,8,0,14,0.00
2014-5-21,73.5,61.7,52.6,65.6,58.4,48.5,98,89,74,29.86,29.61,18,2,21,3.07
2014-5-22,68.5,59.0,53.7,64.4,55.7,49.4,100,89,68,29.83,29.58,25,5,27,0.01
2014-5-23,56.6,51.5,48.7,50.9,46.9,43.9,94,85,69,30.05,29.82,20,7,22,0.00
2014-5-24,72.0,58.3,47.7,56.5,49.5,45.6,96,76,45,30.08,29.96,15,3,21,0.00
2014-5-25,76.6,58.7,41.1,55.1,47.2,40.3,100,71,35,30.08,29.93,12,2,15,0.00
2014-5-26,80.2,62.6,41.9,60.7,52.5,41.1,98,73,45,30.00,29.76,19,3,20,0.00
2014-5-27,78.5,66.9,54.1,68.5,61.7,53.0,98,84,65,29.78,29.58,18,3,20,0.00
2014-5-28,77.3,68.3,55.5,66.3,60.2,50.6,98,78,43,29.83,29.60,15,2,15,0.05
2014-5-29,76.8,62.3,49.4,62.0,55.8,48.0,97,81,57,29.94,29.81,13,2,18,0.00
2014-5-30,75.8,63.0,50.9,57.8,53.8,49.8,98,75,44,30.00,29.92,14,2,18,0.00
2014-5-31,75.3,60.3,46.8,60.2,48.0,40.8,99,70,30,30.11,30.00,13,2,20,0.00
2014-6-1,81.3,62.2,39.7,59.7,49.2,38.7,97,68,32,30.16,29.91,16,2,19,0.00
2014-6-2,80.5,64.7,52.2,68.9,60.4,50.9,98,87,66,29.97,29.72,18,2,18,0.10
2014-6-3,78.2,67.8,56.0,72.0,64.9,54.8,100,91,67,29.73,29.53,24,2,26,0.71
2014-6-4,68.7,57.6,50.2,62.0,55.3,49.9,100,92,64,29.74,29.58,8,0,9,0.10
2014-6-5,65.0,56.4,48.1,55.8,51.0,45.6,99,84,57,29.78,29.56,19,4,21,0.01
2014-6-6,71.3,56.6,41.2,56.5,49.5,40.4,99,79,51,29.90,29.78,16,2,16,0.00
2014-6-7,66.7,49.4,45.4,54.5,47.9,44.6,99,95,63,29.94,29.77,4,0,5,0.00
2014-6-8,77.8,60.2,47.2,68.0,57.5,46.1,98,91,66,29.79,29.49,18,2,20,1.17
2014-6-9,71.3,63.7,56.8,65.5,60.7,55.4,98,90,74,29.75,29.67,9,1,11,0.02
2014-6-10,74.9,66.0,59.2,68.6,63.4,58.9,99,92,71,29.74,29.67,7,0,7,0.00
2014-6-11,78.7,68.7,61.2,69.3,64.9,60.9,99,89,68,29.69,29.53,18,2,18,0.10
2014-6-12,78.1,69.0,64.8,70.7,65.5,62.3,98,89,73,29.60,29.46,16,3,19,0.76
2014-6-13,72.3,65.1,55.4,67.4,62.2,51.4,99,91,73,29.72,29.48,15,3,19,0.41
2014-6-14,65.5,56.0,47.6,54.7,50.2,46.5,96,81,64,30.01,29.72,18,2,19,0.00
2014-6-15,81.6,60.2,45.0,63.9,52.2,44.5,99,79,36,30.11,29.89,10,1,13,0.00
2014-6-16,83.2,65.9,47.5,72.6,61.3,46.9,98,86,61,29.97,29.78,16,2,18,0.02
2014-6-17,86.3,73.1,59.5,74.3,67.0,58.9,99,83,53,29.86,29.53,31,4,36,0.56
2014-6-18,82.9,69.9,62.3,72.2,66.0,62.0,100,89,58,29.82,29.63,20,2,23,0.45
2014-6-19,75.9,66.0,52.3,68.1,62.6,51.1,100,90,65,29.93,29.75,12,1,15,0.24
2014-6-20,77.9,60.5,46.6,60.3,52.8,46.0,99,80,35,29.97,29.76,12,0,13,0.00
2014-6-21,77.5,63.2,49.0,62.1,54.2,48.2,98,75,47,29.79,29.66,11,1,14,0.00
2014-6-22,80.8,64.3,48.8,64.0,55.1,48.0,98,76,42,29.79,29.69,12,1,14,0.00
2014-6-23,83.0,68.3,51.3,72.1,62.1,50.4,98,82,59,29.82,29.69,15,2,21,0.00
2014-6-24,83.6,71.8,66.0,74.0,68.4,64.8,98,89,67,29.74,29.58,27,2,34,1.61
2014-6-25,71.7,67.6,62.9,70.2,66.8,62.3,100,97,89,29.68,29.59,7,0,13,1.39
2014-6-26,78.2,68.7,60.5,68.3,64.9,59.7,99,89,68,29.83,29.68,12,2,15,0.00
2014-6-27,82.2,68.5,59.0,71.6,64.0,58.7,100,87,58,29.93,29.83,7,0,10,0.00
2014-6-28,85.2,72.0,58.0,72.7,66.0,57.7,100,83,58,29.99,29.86,15,1,16,0.00
2014-6-29,81.8,72.3,62.2,73.8,68.1,61.3,98,87,73,29.92,29.73,20,1,21,0.80
2014-6-30,84.9,73.5,64.3,74.1,69.4,64.0,100,88,64,29.79,29.56,16,1,19,0.01
2014-7-1,86.2,75.6,65.3,79.2,71.6,64.7,99,88,63,29.59,29.40,25,3,26,0.07
2014-7-2,83.5,73.0,65.2,73.5,68.4,64.2,99,87,60,29.66,29.44,19,3,24,0.78
2014-7-3,73.8,66.8,60.2,68.9,64.2,57.9,99,92,72,29.84,29.63,15,2,16,0.30
2014-7-4,69.3,61.4,51.9,57.9,53.3,50.1,96,76,54,30.10,29.84,21,4,22,0.00
2014-7-5,75.9,60.9,45.5,60.1,52.1,44.6,99,77,44,30.18,29.98,13,3,14,0.00
2014-7-6,74.4,62.4,50.1,64.4,56.2,49.3,99,82,50,29.99,29.66,15,1,18,0.00
2014-7-7,80.5,70.4,59.5,71.8,65.7,57.2,95,86,73,29.67,29.40,25,6,30,0.05
2014-7-8,79.3,71.0,60.3,72.3,67.4,59.5,97,89,76,29.49,29.23,22,5,29,0.40
2014-7-9,73.0,64.2,56.7,66.2,60.8,56.4,99,89,68,29.82,29.49,18,2,21,0.14
2014-7-10,78.0,64.0,52.6,63.1,57.2,52.3,99,81,51,29.99,29.83,9,1,10,0.01
2014-7-11,82.3,66.0,50.8,68.6,59.1,50.3,99,81,51,30.06,29.92,12,1,13,0.00
2014-7-12,82.2,68.7,53.9,70.1,61.6,53.3,100,81,51,30.00,29.77,18,2,22,0.00
2014-7-13,79.3,70.2,63.2,74.2,67.5,62.0,98,92,74,29.77,29.53,18,3,21,0.56
2014-7-14,81.2,69.9,61.1,73.2,66.8,60.8,100,91,72,29.65,29.50,14,2,20,0.14
2014-7-15,76.7,66.7,54.6,66.2,61.7,53.5,100,85,57,29.60,29.40,20,4,24,1.35
2014-7-16,68.4,58.1,50.4,59.9,54.3,49.6,99,88,64,29.83,29.59,20,3,24,0.01
2014-7-17,70.0,57.5,47.4,59.7,52.0,46.3,99,83,59,30.05,29.83,14,2,15,0.00
2014-7-18,75.6,59.3,43.7,63.6,52.8,42.8,99,82,46,30.17,30.03,8,0,8,0.00
2014-7-19,64.1,61.0,56.7,62.6,59.9,55.6,100,96,93,30.06,29.92,14,1,15,0.85
2014-7-20,75.2,66.6,60.9,68.5,63.6,60.2,99,91,75,29.93,29.84,11,1,12,0.00
2014-7-21,83.0,69.5,59.1,73.6,65.8,58.8,100,89,63,29.95,29.84,10,0,11,0.00
2014-7-22,86.3,71.5,59.9,74.8,66.7,59.4,100,87,57,29.93,29.71,15,1,15,0.00
2014-7-23,78.7,68.6,62.1,72.8,66.0,57.9,100,92,78,29.75,29.59,20,3,20,0.01
2014-7-24,70.3,62.2,48.6,59.3,55.5,47.2,98,80,57,29.88,29.73,15,1,15,0.00
2014-7-25,75.3,59.1,45.0,62.1,52.5,44.5,99,82,52,29.99,29.81,12,2,14,0.00
2014-7-26,79.5,66.6,53.7,68.8,61.1,52.5,100,84,58,29.84,29.56,15,2,16,0.05
2014-7-27,82.0,71.1,61.4,71.1,65.9,60.5,97,84,60,29.56,29.26,19,5,20,0.58
2014-7-28,66.3,60.9,55.2,62.9,59.2,53.8,98,94,86,29.70,29.26,16,3,20,0.16
2014-7-29,67.4,57.6,48.9,57.4,53.2,47.8,100,86,63,29.85,29.69,15,2,16,0.00
2014-7-30,68.3,58.3,49.0,62.1,56.0,48.2,99,93,77,29.88,29.81,13,1,16,0.21
2014-7-31,74.3,62.8,52.4,62.3,57.5,51.6,99,84,56,29.93,29.82,22,3,22,0.00
2014-8-1,81.0,64.6,49.7,70.0,59.6,49.1,100,86,55,30.00,29.87,11,1,12,0.00
2014-8-2,79.5,65.1,55.7,68.8,61.8,55.2,100,90,63,29.94,29.80,15,1,16,0.05
2014-8-3,72.8,64.5,60.6,67.6,63.2,60.2,99,96,76,29.89,29.84,8,0,9,0.45
2014-8-4,80.0,66.7,57.0,70.3,62.8,57.0,100,89,60,29.94,29.82,13,1,14,0.00
2014-8-5,77.6,63.9,59.1,70.3,62.3,58.8,100,95,71,29.85,29.73,16,1,16,0.58
2014-8-6,74.8,64.7,52.7,66.5,60.1,51.6,99,86,57,29.82,29.73,13,1,14,0.00
2014-8-7,73.7,60.9,51.5,66.3,55.6,50.4,100,85,55,29.95,29.82,13,1,14,0.00
2014-8-8,75.1,60.3,49.6,65.3,55.6,49.3,100,87,55,30.03,29.91,9,0,11,0.01
2014-8-9,78.3,63.2,52.1,66.8,58.3,51.5,100,86,53,29.99,29.88,9,0,11,0.01
2014-8-10,82.5,65.8,52.8,70.4,60.5,52.2,100,85,53,29.97,29.81,12,1,12,0.00
2014-8-11,77.3,65.2,53.6,67.9,60.5,53.3,100,86,67,29.87,29.60,15,2,23,0.03
2014-8-12,76.9,67.0,62.5,70.8,64.9,60.5,98,93,77,29.60,29.41,19,2,23,1.86
2014-8-13,65.5,60.8,49.5,62.1,58.3,48.4,100,92,74,29.75,29.50,21,3,21,0.07
2014-8-14,63.7,54.2,45.4,57.1,49.8,44.9,99,86,63,29.83,29.74,23,3,27,0.00
2014-8-15,68.0,55.8,44.2,56.5,49.9,43.4,98,82,54,29.88,29.81,19,3,22,0.00
2014-8-16,72.7,56.4,43.3,59.4,51.7,42.6,100,86,55,29.89,29.71,19,2,19,0.01
2014-8-17,75.5,64.2,52.1,63.5,59.2,51.3,99,85,55,29.78,29.70,11,1,12,0.33
2014-8-18,78.8,62.1,50.9,67.5,57.6,50.6,100,87,57,29.78,29.61,10,0,11,0.00
2014-8-19,81.0,62.2,54.6,70.7,60.2,54.0,99,94,60,29.67,29.56,4,0,4,0.01
2014-8-20,78.7,66.8,60.9,70.4,64.9,60.3,99,94,71,29.73,29.59,11,1,13,0.32
2014-8-21,81.2,68.2,60.7,73.9,66.1,60.7,100,93,71,29.79,29.68,15,2,24,0.10
2014-8-22,79.5,69.2,62.7,73.4,67.6,62.1,100,95,79,29.75,29.65,9,0,11,0.03
2014-8-23,81.0,68.4,62.1,71.0,65.4,61.8,100,91,66,29.86,29.71,13,1,14,0.01
2014-8-24,75.8,66.6,56.4,67.8,62.5,55.8,98,87,67,29.94,29.85,12,1,13,0.00
2014-8-25,79.3,64.5,55.6,67.3,59.8,55.0,100,87,56,30.02,29.89,14,1,18,0.01
2014-8-26,83.0,66.7,52.8,72.7,62.8,52.5,100,89,66,29.99,29.80,11,1,14,0.01
2014-8-27,79.8,67.9,57.3,71.7,64.6,56.5,100,90,71,29.83,29.72,13,2,15,0.00
2014-8-28,68.6,57.9,46.9,57.4,52.8,46.1,99,85,61,30.03,29.81,13,2,13,0.01
2014-8-29,76.5,58.3,45.0,62.1,52.5,44.1,100,84,51,30.10,29.95,12,1,13,0.00
2014-8-30,84.8,67.8,51.4,75.4,63.8,50.9,99,88,69,29.99,29.73,12,1,15,0.00
2014-8-31,76.2,69.4,64.9,71.5,68.2,64.6,100,96,84,29.76,29.68,13,2,15,0.72
2014-9-1,82.0,70.9,65.1,74.4,68.9,65.1,100,94,75,29.75,29.59,13,1,15,0.01
2014-9-2,77.3,71.1,61.8,72.9,68.5,60.9,99,92,79,29.70,29.49,15,2,18,1.03
2014-9-3,78.0,66.5,59.0,70.2,63.0,58.7,100,90,63,29.90,29.69,8,0,10,0.00
2014-9-4,82.6,67.9,58.5,72.5,63.9,58.5,100,89,57,29.93,29.83,13,1,15,0.01
2014-9-5,87.4,71.7,59.6,74.3,67.0,59.6,100,87,60,29.91,29.68,15,2,19,0.01
2014-9-6,70.4,70.4,70.4,69.2,69.2,69.1,96,96,96,29.70,29.70,4,4,4,0.00
2014-9-7,65.6,53.6,47.2,57.5,51.1,46.4,97,91,71,30.11,30.02,0,0,5,0.01
2014-9-8,75.1,58.2,44.7,63.4,52.8,44.2,100,85,53,30.15,29.99,15,1,19,0.00
2014-9-9,74.8,63.8,53.1,66.1,59.7,52.3,100,87,70,30.04,29.84,12,1,15,0.00
2014-9-10,78.6,67.4,55.1,70.5,64.0,54.5,100,90,72,29.86,29.47,15,2,19,0.85
2014-9-11,71.7,62.8,53.9,69.3,60.4,51.1,97,92,87,29.94,29.38,19,5,23,0.34
2014-9-12,55.7,53.2,50.5,52.1,49.8,48.0,96,89,78,30.12,29.93,8,0,11,0.00
2014-9-13,60.7,52.8,46.0,56.2,49.7,45.2,97,89,70,30.21,29.93,22,4,24,0.02
2014-9-14,61.0,50.0,41.4,51.8,46.1,40.9,98,88,60,30.28,30.14,6,0,9,0.00
2014-9-15,64.0,53.5,44.7,55.9,50.1,43.8,99,89,64,30.17,29.92,12,1,14,0.08
2014-9-16,64.4,53.9,42.3,54.6,49.5,41.5,99,87,56,29.97,29.90,11,1,13,0.25
2014-9-17,66.5,51.0,40.9,57.4,46.7,40.6,100,87,55,30.00,29.85,10,1,10,0.01
2014-9-18,67.1,51.8,43.0,59.7,47.9,42.6,100,88,57,30.11,29.90,11,1,13,0.00
2014-9-19,68.3,53.1,44.0,57.4,49.0,43.5,99,87,57,30.21,30.02,9,1,13,0.01
2014-9-20,75.5,64.6,54.0,65.8,59.5,52.3,97,84,68,30.02,29.66,16,2,21,0.00
2014-9-21,74.8,65.3,52.8,67.6,61.0,51.4,95,86,71,29.66,29.32,19,5,28,0.13
2014-9-22,52.7,48.7,39.2,51.3,45.2,38.2,96,88,74,30.20,29.56,14,3,19,0.05
2014-9-23,68.8,49.6,37.5,57.8,45.9,36.7,99,89,57,30.37,30.20,7,0,9,0.00
2014-9-24,73.5,55.9,44.8,62.2,51.2,44.5,100,87,54,30.44,30.31,16,1,18,0.01
2014-9-25,71.0,55.4,45.3,58.6,51.1,44.5,99,87,55,30.33,30.15,11,1,11,0.00
2014-9-26,74.7,55.7,45.0,62.2,51.0,44.6,100,87,50,30.25,30.11,9,0,10,0.01
2014-9-27,76.6,57.5,46.5,64.3,53.6,46.2,100,89,55,30.23,30.05,8,0,10,0.02
2014-9-28,76.0,59.3,50.0,66.5,56.2,49.5,100,91,57,30.10,29.89,5,0,6,0.02
2014-9-29,75.8,59.6,51.2,65.3,55.4,50.4,100,88,53,29.89,29.70,10,1,13,0.00
2014-9-30,66.8,55.5,49.4,62.2,53.4,48.5,100,93,71,29.83,29.70,10,1,12,0.01
2014-10-1,73.9,58.0,48.0,63.4,55.1,47.5,100,91,60,29.91,29.82,10,0,10,0.01
2014-10-2,73.4,56.6,48.7,62.3,53.3,48.3,100,90,59,29.99,29.85,10,0,12,0.01
2014-10-3,73.9,60.4,49.1,63.2,57.4,48.7,100,91,65,29.85,29.34,18,2,25,0.63
2014-10-4,57.9,50.4,44.1,56.7,46.8,37.8,97,88,65,29.48,29.34,25,8,29,0.23
2014-10-8,55.9,49.5,42.9,50.5,43.4,39.5,95,80,63,29.87,29.68,21,4,27,0.00
2014-10-9,59.9,45.5,33.3,47.1,39.7,32.2,98,82,52,30.05,29.86,26,3,29,0.00
2014-10-10,57.7,43.4,32.4,49.5,39.2,31.3,99,87,58,30.12,30.03,10,0,12,0.00
2014-10-11,54.0,42.4,30.4,45.0,37.6,29.4,98,85,57,30.24,30.03,12,1,14,0.00
2014-10-12,62.7,42.4,30.1,48.5,36.9,29.1,99,84,42,30.31,30.11,13,1,23,0.01
2014-10-13,68.8,58.6,43.4,62.8,54.9,41.9,96,88,72,30.13,29.87,11,1,16,0.04
2014-10-14,74.1,59.5,56.2,65.7,57.4,54.9,96,93,75,29.88,29.64,11,1,21,0.01
2014-10-18,47.2,44.0,39.2,44.9,41.8,37.1,94,92,89,29.89,29.58,16,6,21,0.57
2014-10-19,48.4,40.1,31.7,37.1,33.8,30.6,96,79,58,30.12,29.89,19,4,19,0.00
2014-10-20,54.7,43.6,32.4,47.1,40.4,31.3,97,89,69,30.04,29.77,19,2,21,0.02
2014-10-21,51.1,48.4,45.1,48.8,47.0,43.8,99,95,88,29.96,29.71,11,1,13,0.13
2014-10-22,45.7,44.1,42.4,43.8,41.6,40.5,95,91,87,30.17,29.96,13,2,14,0.00
2014-10-23,58.2,48.4,40.2,45.4,42.1,38.2,97,80,56,30.12,29.96,16,2,21,0.00
2014-10-24,59.9,45.1,35.1,47.9,41.0,34.3,100,87,51,30.01,29.89,13,2,15,0.00
2014-10-25,64.9,52.0,42.3,54.6,47.3,40.9,97,85,66,29.92,29.52,24,5,32,0.01
2014-10-26,54.4,43.3,31.5,42.3,37.3,30.2,97,80,60,29.91,29.57,25,4,27,0.00
2014-10-27,67.4,42.8,26.9,48.8,35.3,25.9,99,80,33,30.06,29.83,11,0,13,0.00
2014-10-28,75.0,57.1,43.6,60.7,52.0,41.5,97,85,57,29.83,29.59,26,4,35,0.44
2014-10-29,54.2,46.9,41.6,48.1,41.7,38.1,97,83,56,29.94,29.74,18,5,21,0.04
2014-10-30,47.3,41.9,36.7,41.2,38.7,35.7,97,89,70,30.05,29.94,12,2,13,0.08
2014-10-31,45.4,39.5,36.1,42.2,38.1,35.3,98,95,78,30.01,29.84,10,0,12,0.12
2014-11-1,39.4,36.7,32.7,37.6,34.5,29.6,97,92,86,30.19,29.90,14,3,19,0.00
2014-11-2,40.4,33.1,26.2,30.2,27.8,24.3,93,82,57,30.37,30.18,20,4,25,0.05
2014-11-3,52.6,39.9,22.9,33.3,26.9,21.6,96,65,32,30.40,30.14,16,4,20,0.00
2014-11-4,66.3,53.9,36.6,51.4,34.5,29.1,94,51,25,30.14,29.81,24,5,31,0.08
2014-11-5,56.6,45.0,32.4,42.1,36.7,31.0,96,75,49,30.06,29.83,25,5,28,0.10
2014-11-6,43.7,39.5,32.1,42.4,38.4,31.0,98,96,94,30.02,29.65,9,1,12,0.55
2014-11-7,41.6,36.1,32.8,40.7,31.9,26.9,98,85,71,30.03,29.71,20,5,23,0.11
2014-11-8,43.3,37.6,31.1,34.2,31.1,28.4,90,78,63,30.01,29.73,18,2,18,0.00
2014-11-9,46.5,43.2,42.0,36.7,33.5,31.5,80,68,58,29.91,29.81,16,3,20,0.00
2014-11-10,61.3,53.7,43.9,41.5,37.7,32.9,69,55,40,29.99,29.72,18,1,20,0.00
2014-11-11,68.5,60.1,42.0,47.9,41.9,38.6,90,52,43,29.74,29.51,22,2,23,0.00
2014-11-12,65.6,65.6,65.6,43.1,43.1,43.1,44,44,44,30.00,29.52,0,0,0,0.00
2014-11-13,65.6,42.6,29.8,43.1,33.6,11.8,95,76,44,30.17,29.93,9,4,11,0.01
2014-11-14,29.8,28.3,24.8,28.5,26.4,23.1,95,93,83,30.37,30.13,22,7,23,0.02
2014-11-15,34.1,29.4,26.7,26.0,25.1,21.6,94,84,63,30.49,30.32,16,5,18,0.04
2014-11-16,33.7,31.2,23.9,27.0,25.5,21.9,94,79,64,30.34,29.95,14,3,20,0.01
2014-11-17,33.0,32.5,31.8,31.9,29.3,27.0,98,88,80,29.95,29.52,13,5,15,0.17
2014-11-18,32.6,19.5,9.7,31.1,13.3,3.1,94,77,65,30.36,29.78,34,12,42,0.00
2014-11-19,30.4,17.5,7.7,27.4,12.1,2.7,92,79,64,30.44,29.98,23,6,31,0.00
2014-11-20,29.4,22.8,18.5,26.2,15.1,10.7,93,72,59,30.20,29.99,32,14,33,0.00
2014-11-21,23.2,15.5,4.7,17.1,11.7,1.9,100,85,66,30.73,30.21,18,6,22,0.00
2014-11-22,34.9,21.4,1.8,33.3,19.5,-0.9,97,92,80,30.69,30.24,16,2,18,0.25
2014-11-23,50.4,37.1,32.2,45.6,35.3,31.5,98,94,66,30.25,29.51,22,1,22,0.18
2014-11-24,64.2,53.6,41.1,55.1,48.1,31.7,93,82,56,29.62,29.14,30,8,36,0.49
2014-11-25,41.6,37.5,34.4,32.6,28.8,26.8,77,71,64,30.07,29.62,29,11,31,0.00
2014-11-26,32.6,31.2,30.2,32.0,29.3,28.2,100,92,84,30.13,30.06,5,1,5,0.05
2014-11-27,33.7,29.4,24.9,28.8,26.9,22.9,95,91,71,30.27,30.05,20,4,20,0.03
2014-11-28,24.8,21.9,17.5,22.5,17.6,14.1,93,83,68,30.44,30.26,16,5,19,0.00
2014-11-29,41.6,31.7,20.0,34.1,25.2,17.3,93,78,58,30.37,29.95,14,2,19,0.04
2014-11-30,59.0,52.4,38.4,53.4,46.8,33.6,86,81,77,29.95,29.78,24,7,24,0.01
2014-12-1,58.0,35.9,23.9,53.4,31.4,16.6,96,84,68,30.65,29.81,16,6,20,0.06
2014-12-2,34.4,27.0,17.1,33.6,22.7,13.3,97,84,59,30.68,30.19,18,4,20,0.04
2014-12-3,38.6,33.8,27.0,37.3,31.3,23.4,97,91,81,30.34,30.06,26,7,28,0.03
2014-12-4,34.4,27.8,19.9,26.7,23.1,18.5,94,82,66,30.57,30.33,15,3,18,0.00
2014-12-5,34.8,30.8,19.7,33.3,28.1,18.3,97,90,78,30.57,30.27,13,2,14,0.15
2014-12-6,37.1,34.8,31.6,36.1,32.3,25.0,98,91,74,30.56,30.18,16,3,21,1.15
2014-12-7,36.5,28.5,22.5,25.1,21.3,17.7,90,75,50,30.78,30.56,15,4,16,0.01
2014-12-8,35.4,29.1,21.3,29.0,20.2,13.7,88,71,43,30.68,30.31,20,3,23,0.00
2014-12-9,42.4,35.5,30.5,36.1,31.8,28.1,93,86,73,30.31,30.06,14,2,15,0.00
2014-12-10,35.0,29.1,25.2,32.3,26.3,22.4,93,89,85,30.09,29.91,24,7,29,0.00
2014-12-11,29.0,27.5,25.2,27.9,26.0,22.7,97,94,87,30.05,29.83,28,9,28,0.00
2014-12-12,33.0,30.6,29.1,30.9,28.4,25.6,100,91,83,30.26,30.03,18,8,25,0.06
2014-12-13,32.5,30.1,28.2,31.7,28.8,26.4,97,95,93,30.23,30.05,18,8,19,0.00
2014-12-14,36.4,34.8,32.1,35.6,33.8,31.4,98,96,93,30.12,30.02,13,4,15,0.20
2014-12-15,38.9,35.0,32.2,38.3,34.4,31.5,98,98,95,30.15,29.95,13,1,13,0.02
2014-12-16,43.0,37.5,29.5,42.1,36.8,28.8,99,97,93,29.95,29.71,18,2,20,0.58
2014-12-17,40.9,33.0,26.7,39.7,31.0,25.0,96,92,87,30.11,29.82,25,11,30,0.11
2014-12-18,28.7,27.8,26.8,26.6,25.5,23.6,94,91,87,30.24,30.10,20,8,22,0.00
2014-12-19,28.4,25.1,17.9,26.2,21.8,16.0,94,87,79,30.43,30.19,15,5,20,0.00
2014-12-20,27.2,24.8,19.9,23.2,21.2,18.0,94,86,82,30.45,30.37,11,1,11,0.00
2014-12-21,29.0,26.6,19.4,25.3,22.7,17.5,92,85,79,30.47,30.37,9,1,11,0.00
2014-12-22,37.6,27.0,15.6,31.0,23.4,13.9,95,86,72,30.38,30.11,12,2,13,0.01
2014-12-23,44.7,39.1,32.2,43.4,37.6,30.2,97,94,88,30.12,29.84,13,2,15,0.02
2014-12-24,52.9,47.8,43.8,49.5,46.2,40.0,100,94,83,29.84,29.13,33,4,46,0.26
2014-12-25,40.1,36.9,35.4,35.8,32.4,29.3,93,84,77,30.20,29.41,27,10,30,0.05
2014-12-26,46.7,35.8,27.1,35.5,30.4,26.1,96,81,62,30.32,30.17,18,3,21,0.00
2014-12-27,53.7,40.6,27.0,42.6,35.1,26.0,97,82,56,30.27,29.92,19,3,19,0.00
2014-12-28,44.1,34.8,28.9,42.9,32.5,27.3,97,91,82,30.18,29.83,19,4,20,0.47
2014-12-29,31.7,27.8,23.1,27.4,23.0,16.1,92,82,74,30.46,30.17,16,3,16,0.00
2014-12-30,25.7,21.8,18.0,19.6,16.6,13.2,92,80,66,30.62,30.45,18,5,21,0.00
2014-12-31,20.7,17.0,13.9,15.2,9.7,5.3,90,73,57,30.59,30.31,22,8,25,0.00
2015-1-1,30.7,23.5,15.3,22.2,12.2,5.2,80,62,48,30.31,30.05,33,13,39,0.00
2015-1-2,29.9,25.4,17.6,22.6,19.8,15.8,100,79,71,30.56,30.18,20,5,23,0.00